Time;durP1;ratioP1;P1;durP2;ratioP2;P2;SDS_P1;SDS_P2;PMS_P1;PMS_P2;Temp;Humidity;BMP_temperature;BMP_pressure;BME280_temperature;BME280_humidity;BME280_pressure;Samples;Min_cycle;Max_cycle;Signal;HPM_P1;HPM_P2
2023/03/09 00:02:22;;;;;;;26.83;14.23;;;0.90;99.90;;;;;;5165752;28;20236;-53
2023/03/09 00:04:53;;;;;;;27.87;16.20;;;0.90;99.90;;;;;;5162229;28;20615;-53
2023/03/09 00:07:23;;;;;;;27.47;15.80;;;0.90;99.90;;;;;;5161738;28;20641;-53
2023/03/09 00:09:54;;;;;;;27.57;15.30;;;0.90;99.90;;;;;;5168760;28;20219;-53
2023/03/09 00:12:25;;;;;;;26.33;15.53;;;0.90;99.90;;;;;;5177481;28;20193;-53
2023/03/09 00:14:56;;;;;;;30.87;17.07;;;0.90;99.90;;;;;;5163557;28;20657;-52
2023/03/09 00:17:27;;;;;;;29.23;16.70;;;0.90;99.90;;;;;;5167492;28;20633;-53
2023/03/09 00:20:16;;;;;;;33.13;16.17;;;0.90;99.90;;;;;;5170492;28;20440;-53
2023/03/09 00:22:48;;;;;;;27.70;15.80;;;0.90;99.90;;;;;;5172169;28;20185;-53
2023/03/09 00:25:21;;;;;;;35.63;15.80;;;0.90;99.90;;;;;;5178284;28;20844;-52
2023/03/09 00:27:52;;;;;;;30.00;17.37;;;0.90;99.90;;;;;;5179096;28;20460;-52
2023/03/09 00:30:23;;;;;;;29.77;16.13;;;0.90;99.90;;;;;;5171896;28;20443;-53
2023/03/09 00:32:54;;;;;;;28.50;16.70;;;0.90;99.90;;;;;;5162439;28;20942;-52
2023/03/09 00:35:24;;;;;;;27.37;16.70;;;0.90;99.90;;;;;;5172240;28;20205;-52
2023/03/09 00:37:55;;;;;;;30.23;16.10;;;0.90;99.90;;;;;;5168580;28;20214;-52
2023/03/09 00:40:26;;;;;;;34.07;16.97;;;0.90;99.90;;;;;;5167914;28;20740;-53
2023/03/09 00:42:56;;;;;;;28.53;15.40;;;1.00;99.90;;;;;;5167987;28;20187;-51
2023/03/09 00:45:27;;;;;;;34.67;16.50;;;0.90;99.90;;;;;;5169834;28;20692;-52
2023/03/09 00:47:58;;;;;;;28.63;15.63;;;0.90;99.90;;;;;;5166678;28;20206;-50
2023/03/09 00:50:28;;;;;;;30.90;17.00;;;0.90;99.90;;;;;;5180247;28;20177;-51
2023/03/09 00:52:59;;;;;;;30.37;16.47;;;0.90;99.90;;;;;;5175504;28;20265;-52
2023/03/09 00:55:30;;;;;;;31.57;14.73;;;0.90;99.90;;;;;;5172194;28;20602;-51
2023/03/09 00:58:01;;;;;;;22.20;15.00;;;0.90;99.90;;;;;;5177523;28;20215;-52
2023/03/09 01:00:34;;;;;;;23.13;14.70;;;0.90;99.90;;;;;;5167060;28;20567;-51
2023/03/09 01:03:05;;;;;;;30.70;17.60;;;1.00;99.90;;;;;;5171512;28;20193;-51
2023/03/09 01:05:37;;;;;;;28.80;16.63;;;0.90;99.90;;;;;;5163221;28;20463;-51
2023/03/09 01:08:07;;;;;;;24.70;14.80;;;0.90;99.90;;;;;;5169661;28;20698;-52
2023/03/09 01:10:39;;;;;;;32.73;16.00;;;0.90;99.90;;;;;;5169939;28;20436;-53
2023/03/09 01:13:10;;;;;;;27.47;16.10;;;1.00;99.90;;;;;;5177617;28;20194;-52
2023/03/09 01:15:40;;;;;;;31.27;17.17;;;0.80;99.90;;;;;;5166855;28;20502;-52
2023/03/09 01:18:11;;;;;;;26.53;16.43;;;0.90;99.90;;;;;;5157813;28;20453;-52
2023/03/09 01:20:42;;;;;;;30.70;17.60;;;0.80;99.90;;;;;;5161291;28;20213;-53
2023/03/09 01:23:12;;;;;;;25.63;15.90;;;0.90;99.90;;;;;;5160076;28;20243;-52
2023/03/09 01:25:43;;;;;;;30.77;16.90;;;0.80;99.90;;;;;;5177929;28;20299;-52
2023/03/09 01:28:13;;;;;;;25.60;15.90;;;0.80;99.90;;;;;;5175702;28;20201;-52
2023/03/09 01:30:44;;;;;;;28.30;15.87;;;0.80;99.90;;;;;;5179200;28;20580;-51
2023/03/09 01:33:15;;;;;;;28.00;17.07;;;0.90;99.90;;;;;;5159947;28;20192;-51
2023/03/09 01:35:46;;;;;;;27.60;16.60;;;0.80;99.90;;;;;;5161787;28;20186;-51
2023/03/09 01:38:16;;;;;;;36.13;17.63;;;0.80;99.90;;;;;;5168473;28;20229;-52
2023/03/09 01:40:47;;;;;;;32.20;16.50;;;0.80;99.90;;;;;;5164524;28;20194;-52
2023/03/09 01:43:34;;;;;;;28.73;16.60;;;0.80;99.90;;;;;;5171783;28;20189;-52
2023/03/09 01:46:20;;;;;;;29.73;16.40;;;0.80;99.90;;;;;;5167362;28;20465;-52
2023/03/09 01:48:54;;;;;;;28.93;16.87;;;0.80;99.90;;;;;;5156583;28;20524;-52
2023/03/09 01:51:30;;;;;;;31.27;15.90;;;0.80;99.90;;;;;;5173293;28;20529;-52
2023/03/09 01:54:02;;;;;;;29.00;16.63;;;0.80;99.90;;;;;;5179267;28;20450;-52
2023/03/09 01:56:35;;;;;;;33.73;17.30;;;0.80;99.90;;;;;;5171302;28;20811;-52
2023/03/09 01:59:08;;;;;;;31.43;17.70;;;0.80;99.90;;;;;;5170364;28;20456;-53
2023/03/09 02:01:41;;;;;;;31.93;16.97;;;0.80;99.90;;;;;;5162717;28;20447;-52
2023/03/09 02:04:20;;;;;;;30.53;16.00;;;0.80;99.90;;;;;;5175744;28;20945;-53
2023/03/09 02:06:51;;;;;;;32.87;17.10;;;0.70;99.90;;;;;;5166350;28;20515;-52
2023/03/09 02:09:28;;;;;;;33.97;17.27;;;0.80;99.90;;;;;;5171185;28;20455;-53
2023/03/09 02:11:59;;;;;;;29.07;16.53;;;0.70;99.90;;;;;;5169244;28;20440;-52
2023/03/09 02:14:31;;;;;;;35.60;18.43;;;0.70;99.90;;;;;;5172573;28;20440;-52
2023/03/09 02:17:01;;;;;;;36.83;19.10;;;0.70;99.90;;;;;;5166765;28;20440;-52
2023/03/09 02:19:57;;;;;;;29.40;18.10;;;0.70;99.90;;;;;;5160423;28;20479;-52
2023/03/09 02:22:27;;;;;;;40.40;19.10;;;0.60;99.90;;;;;;5162597;28;20190;-52
2023/03/09 02:25:26;;;;;;;38.13;18.37;;;0.70;99.90;;;;;;5155057;28;20842;-50
2023/03/09 02:27:59;;;;;;;32.47;19.30;;;0.60;99.90;;;;;;5172899;28;20367;-51
2023/03/09 02:30:35;;;;;;;35.97;19.90;;;0.70;99.90;;;;;;5171425;28;20451;-52
2023/03/09 02:33:09;;;;;;;42.03;21.03;;;0.70;99.90;;;;;;5161947;28;20439;-53
2023/03/09 02:35:40;;;;;;;40.33;21.40;;;0.60;99.90;;;;;;5164617;28;20542;-52
2023/03/09 02:38:13;;;;;;;48.63;18.97;;;0.60;99.90;;;;;;5159508;28;20558;-51
2023/03/09 02:40:44;;;;;;;38.10;22.23;;;0.70;99.90;;;;;;5168211;28;20656;-53
2023/03/09 02:43:18;;;;;;;35.83;20.03;;;0.60;99.90;;;;;;5164154;28;20829;-52
2023/03/09 02:45:51;;;;;;;39.57;20.23;;;0.70;99.90;;;;;;5166094;28;20460;-53
2023/03/09 02:48:21;;;;;;;40.83;19.67;;;0.60;99.90;;;;;;5179613;28;20968;-51
2023/03/09 02:50:52;;;;;;;39.60;21.57;;;0.60;99.90;;;;;;5160781;28;20435;-52
2023/03/09 02:53:23;;;;;;;36.33;20.53;;;0.60;99.90;;;;;;5157322;28;20255;-51
2023/03/09 02:55:53;;;;;;;34.00;19.67;;;0.60;99.90;;;;;;5156472;28;20188;-52
2023/03/09 02:58:24;;;;;;;43.47;21.27;;;0.60;99.90;;;;;;5167989;28;20214;-53
2023/03/09 03:00:55;;;;;;;48.63;21.10;;;0.50;99.90;;;;;;5169351;28;20185;-52
2023/03/09 03:03:25;;;;;;;39.50;21.63;;;0.50;99.90;;;;;;5166382;28;20279;-51
2023/03/09 03:05:56;;;;;;;41.20;21.97;;;0.50;99.90;;;;;;5175908;28;20686;-53
2023/03/09 03:08:27;;;;;;;48.70;22.73;;;0.50;99.90;;;;;;5158454;28;20255;-52
2023/03/09 03:10:57;;;;;;;45.80;21.20;;;0.50;99.90;;;;;;5172830;28;20193;-52
2023/03/09 03:13:28;;;;;;;41.37;20.33;;;0.50;99.90;;;;;;5159429;28;20186;-52
2023/03/09 03:16:02;;;;;;;36.83;18.50;;;0.50;99.90;;;;;;5158122;28;20516;-52
2023/03/09 03:18:32;;;;;;;48.70;21.07;;;0.40;99.90;;;;;;5172854;28;20240;-53
2023/03/09 03:21:03;;;;;;;41.40;21.07;;;0.40;99.90;;;;;;5175346;28;20471;-52
2023/03/09 03:23:34;;;;;;;38.67;19.83;;;0.40;99.90;;;;;;5161212;28;20192;-53
2023/03/09 03:26:09;;;;;;;40.17;20.33;;;0.30;99.90;;;;;;5166025;28;20208;-52
2023/03/09 03:28:39;;;;;;;47.13;19.87;;;0.30;99.90;;;;;;5167324;28;20200;-52
2023/03/09 03:31:11;;;;;;;39.70;19.90;;;0.30;99.90;;;;;;5173028;28;20513;-51
2023/03/09 03:33:41;;;;;;;36.43;17.93;;;0.30;99.90;;;;;;5176520;28;20213;-51
2023/03/09 03:36:12;;;;;;;36.43;19.00;;;0.30;99.90;;;;;;5177633;28;20483;-52
2023/03/09 03:38:42;;;;;;;37.97;19.30;;;0.30;99.90;;;;;;5166055;28;20760;-52
2023/03/09 03:41:13;;;;;;;39.40;18.90;;;0.30;99.90;;;;;;5158574;28;20197;-53
2023/03/09 03:43:44;;;;;;;37.90;19.00;;;0.20;99.90;;;;;;5162476;28;20555;-52
2023/03/09 03:46:14;;;;;;;37.97;18.97;;;0.20;99.90;;;;;;5148902;28;20205;-52
2023/03/09 03:48:45;;;;;;;32.10;18.20;;;0.30;99.90;;;;;;5164957;28;20669;-51
2023/03/09 03:51:16;;;;;;;38.77;19.63;;;0.30;99.90;;;;;;5158353;28;20176;-51
2023/03/09 03:53:47;;;;;;;41.47;18.83;;;0.20;99.90;;;;;;5161772;28;20268;-53
2023/03/09 03:56:17;;;;;;;39.77;19.80;;;0.20;99.90;;;;;;5160105;28;20182;-50
2023/03/09 03:58:48;;;;;;;34.97;17.90;;;0.20;99.90;;;;;;5168069;28;20208;-51
2023/03/09 04:01:19;;;;;;;42.13;19.67;;;0.20;99.90;;;;;;5168309;28;20183;-52
2023/03/09 04:03:50;;;;;;;41.17;19.13;;;0.20;99.90;;;;;;5158288;28;20179;-52
2023/03/09 04:06:20;;;;;;;38.67;18.90;;;0.20;99.90;;;;;;5173432;28;20243;-51
2023/03/09 04:08:51;;;;;;;37.80;20.33;;;0.10;99.90;;;;;;5168973;28;20211;-52
2023/03/09 04:11:22;;;;;;;39.67;20.90;;;0.10;99.90;;;;;;5170424;28;20180;-52
2023/03/09 04:13:53;;;;;;;37.13;19.70;;;0.10;99.90;;;;;;5160745;28;20192;-51
2023/03/09 04:16:24;;;;;;;45.53;21.83;;;0.00;99.90;;;;;;5164470;28;20181;-53
2023/03/09 04:18:54;;;;;;;38.03;20.57;;;0.10;99.90;;;;;;5171353;28;21011;-52
2023/03/09 04:21:25;;;;;;;43.57;21.50;;;0.10;99.90;;;;;;5163795;28;20188;-51
2023/03/09 04:23:56;;;;;;;51.10;21.90;;;0.20;99.90;;;;;;5165653;28;20248;-54
2023/03/09 04:26:26;;;;;;;46.67;20.50;;;0.10;99.90;;;;;;5164918;28;20204;-53
2023/03/09 04:28:57;;;;;;;38.90;21.53;;;0.10;99.90;;;;;;5173028;28;20235;-53
2023/03/09 04:31:28;;;;;;;50.10;23.37;;;0.10;99.90;;;;;;5167883;28;20192;-54
2023/03/09 04:33:58;;;;;;;44.10;23.50;;;0.10;99.90;;;;;;5165029;28;20191;-52
2023/03/09 04:36:30;;;;;;;41.53;23.60;;;0.10;99.90;;;;;;5174879;28;20262;-53
2023/03/09 04:39:01;;;;;;;43.60;23.23;;;0.10;99.90;;;;;;5157639;28;20215;-53
2023/03/09 04:41:31;;;;;;;46.00;22.30;;;0.10;99.90;;;;;;5152007;28;20440;-52
2023/03/09 04:44:03;;;;;;;46.10;22.70;;;0.10;99.90;;;;;;5162255;28;20193;-52
2023/03/09 04:46:33;;;;;;;44.00;25.07;;;0.10;99.90;;;;;;5165347;28;20304;-53
2023/03/09 04:49:04;;;;;;;52.77;26.20;;;0.10;99.90;;;;;;5169769;28;20527;-52
2023/03/09 04:51:35;;;;;;;45.20;23.30;;;0.20;99.90;;;;;;5166018;28;20236;-53
2023/03/09 04:54:05;;;;;;;51.20;24.97;;;0.20;99.90;;;;;;5165172;28;20169;-54
2023/03/09 04:56:36;;;;;;;51.73;24.80;;;0.20;99.90;;;;;;5177457;28;20188;-52
2023/03/09 04:59:06;;;;;;;44.47;23.83;;;0.20;99.90;;;;;;5165974;28;20206;-52
2023/03/09 05:01:37;;;;;;;47.03;23.03;;;0.20;99.90;;;;;;5160535;28;20240;-53
2023/03/09 05:04:09;;;;;;;45.30;24.30;;;0.20;99.90;;;;;;5174765;28;20181;-52
2023/03/09 05:06:40;;;;;;;42.27;24.23;;;0.20;99.90;;;;;;5163416;28;20224;-53
2023/03/09 05:09:11;;;;;;;51.93;23.83;;;0.20;99.90;;;;;;5162485;28;20460;-53
2023/03/09 05:11:42;;;;;;;46.00;23.50;;;0.20;99.90;;;;;;5167871;28;20180;-53
2023/03/09 05:14:13;;;;;;;51.20;23.43;;;0.20;99.90;;;;;;5167491;28;20701;-53
2023/03/09 05:16:43;;;;;;;45.47;24.37;;;0.20;99.90;;;;;;5168543;28;20471;-52
2023/03/09 05:19:14;;;;;;;40.77;24.27;;;0.30;99.90;;;;;;5177737;28;20201;-53
2023/03/09 05:21:45;;;;;;;42.50;23.67;;;0.30;99.90;;;;;;5179078;28;20189;-52
2023/03/09 05:24:15;;;;;;;47.50;24.47;;;0.30;99.90;;;;;;5167921;28;20557;-53
2023/03/09 05:26:46;;;;;;;39.90;22.63;;;0.30;99.90;;;;;;5164737;28;20225;-53
2023/03/09 05:29:17;;;;;;;42.80;23.90;;;0.30;99.90;;;;;;5156767;28;20256;-52
2023/03/09 05:31:47;;;;;;;49.07;21.97;;;0.30;99.90;;;;;;5168236;28;20205;-51
2023/03/09 05:34:18;;;;;;;45.30;22.80;;;0.30;99.90;;;;;;5166512;28;20180;-53
2023/03/09 05:36:49;;;;;;;44.40;21.97;;;0.40;99.90;;;;;;5167895;28;20189;-52
2023/03/09 05:39:20;;;;;;;41.33;22.63;;;0.30;99.90;;;;;;5166857;28;20217;-52
2023/03/09 05:41:51;;;;;;;37.70;21.03;;;0.30;99.90;;;;;;5163887;28;20451;-54
2023/03/09 05:44:22;;;;;;;46.97;23.77;;;0.30;99.90;;;;;;5159508;28;20192;-53
2023/03/09 05:46:54;;;;;;;43.37;22.80;;;0.30;99.90;;;;;;5167176;28;20210;-54
2023/03/09 05:49:30;;;;;;;41.87;20.97;;;0.30;99.90;;;;;;5177982;28;20914;-54
2023/03/09 05:52:01;;;;;;;34.73;19.40;;;0.30;99.90;;;;;;5180914;28;20678;-54
2023/03/09 05:54:31;;;;;;;42.63;21.73;;;0.30;99.90;;;;;;5169225;28;20448;-52
2023/03/09 05:57:02;;;;;;;42.23;21.93;;;0.30;99.90;;;;;;5155475;28;20995;-53
2023/03/09 05:59:35;;;;;;;45.53;22.20;;;0.20;99.90;;;;;;5173408;28;20204;-54
2023/03/09 06:02:06;;;;;;;39.60;23.23;;;0.30;99.90;;;;;;5160730;28;20559;-54
2023/03/09 06:04:37;;;;;;;38.90;21.97;;;0.20;99.90;;;;;;5169163;28;20440;-53
2023/03/09 06:07:07;;;;;;;44.50;22.93;;;0.20;99.90;;;;;;5169523;28;20218;-54
2023/03/09 06:09:38;;;;;;;44.97;21.90;;;0.30;99.90;;;;;;5169528;28;20232;-53
2023/03/09 06:12:09;;;;;;;36.60;21.10;;;0.30;99.90;;;;;;5163459;28;20259;-54
2023/03/09 06:14:39;;;;;;;44.60;23.10;;;0.20;99.90;;;;;;5165636;28;20231;-53
2023/03/09 06:17:10;;;;;;;40.17;21.10;;;0.20;99.90;;;;;;5162477;28;20240;-53
2023/03/09 06:19:41;;;;;;;42.90;21.77;;;0.20;99.90;;;;;;5179250;28;20215;-53
2023/03/09 06:22:11;;;;;;;46.60;22.97;;;0.30;99.90;;;;;;5166201;28;20196;-54
2023/03/09 06:24:42;;;;;;;40.27;22.00;;;0.30;99.90;;;;;;5165685;28;20189;-53
2023/03/09 06:27:13;;;;;;;47.77;23.53;;;0.30;99.90;;;;;;5163801;28;20356;-54
2023/03/09 06:29:43;;;;;;;40.00;21.03;;;0.20;99.90;;;;;;5162937;28;20209;-52
2023/03/09 06:32:14;;;;;;;46.37;23.07;;;0.30;99.90;;;;;;5157238;28;20189;-52
2023/03/09 06:34:45;;;;;;;48.20;23.50;;;0.20;99.90;;;;;;5163506;28;20650;-52
2023/03/09 06:37:15;;;;;;;38.53;21.00;;;0.20;99.90;;;;;;5161428;28;20190;-53
2023/03/09 06:39:46;;;;;;;41.47;21.93;;;0.20;99.90;;;;;;5151905;28;20228;-53
2023/03/09 06:42:16;;;;;;;46.43;22.40;;;0.20;99.90;;;;;;5158560;28;20662;-54
2023/03/09 06:44:47;;;;;;;40.67;22.27;;;0.40;99.90;;;;;;5158744;28;20196;-53
2023/03/09 06:47:18;;;;;;;43.73;20.80;;;0.30;99.90;;;;;;5141528;28;20306;-52
2023/03/09 06:49:50;;;;;;;37.17;21.13;;;0.30;99.90;;;;;;5148714;28;20206;-53
2023/03/09 06:52:20;;;;;;;41.60;21.23;;;0.30;99.90;;;;;;5159213;28;20255;-54
2023/03/09 06:54:52;;;;;;;36.87;20.00;;;0.30;99.90;;;;;;5161433;28;20654;-51
2023/03/09 06:57:22;;;;;;;37.30;21.03;;;0.40;99.90;;;;;;5162928;28;20201;-53
2023/03/09 06:59:53;;;;;;;41.30;22.00;;;0.40;99.90;;;;;;5161204;28;20522;-52
2023/03/09 07:02:24;;;;;;;41.67;21.90;;;0.50;99.90;;;;;;5160240;28;20225;-53
2023/03/09 07:04:54;;;;;;;36.77;20.00;;;0.60;99.90;;;;;;5156645;28;20206;-54
2023/03/09 07:07:25;;;;;;;34.67;20.10;;;0.50;99.90;;;;;;5161987;28;20208;-53
2023/03/09 07:09:55;;;;;;;37.23;20.30;;;0.60;99.90;;;;;;5163191;28;20177;-51
2023/03/09 07:12:26;;;;;;;32.73;17.33;;;0.60;99.90;;;;;;5161983;28;20185;-53
2023/03/09 07:14:57;;;;;;;31.07;18.70;;;0.50;99.90;;;;;;5161045;28;20259;-51
2023/03/09 07:17:27;;;;;;;36.37;18.97;;;0.50;99.90;;;;;;5156197;28;20202;-51
2023/03/09 07:19:58;;;;;;;37.63;19.37;;;0.50;99.90;;;;;;5157528;28;20205;-51
2023/03/09 07:22:29;;;;;;;39.07;19.43;;;0.40;99.90;;;;;;5165633;28;20192;-52
2023/03/09 07:24:59;;;;;;;33.30;17.57;;;0.50;99.90;;;;;;5154632;28;20631;-51
2023/03/09 07:27:30;;;;;;;31.03;16.97;;;0.60;99.90;;;;;;5154904;28;20329;-52
2023/03/09 07:30:01;;;;;;;32.23;17.60;;;0.50;99.90;;;;;;5158297;28;20199;-52
2023/03/09 07:32:32;;;;;;;30.53;16.87;;;0.60;99.90;;;;;;5155146;28;20868;-51
2023/03/09 07:35:03;;;;;;;31.97;17.63;;;0.60;99.90;;;;;;5162567;28;20189;-54
2023/03/09 07:37:34;;;;;;;29.30;17.20;;;0.60;99.90;;;;;;5166113;28;20726;-52
2023/03/09 07:40:05;;;;;;;33.13;18.00;;;0.60;99.90;;;;;;5160820;28;20799;-50
2023/03/09 07:42:36;;;;;;;28.73;14.87;;;0.70;99.90;;;;;;5158577;28;20944;-55
2023/03/09 07:45:07;;;;;;;28.57;14.90;;;0.70;99.90;;;;;;5158215;28;20531;-52
2023/03/09 07:47:38;;;;;;;31.20;16.60;;;0.80;99.90;;;;;;5160140;28;20276;-51
2023/03/09 07:50:09;;;;;;;22.50;14.20;;;0.80;99.90;;;;;;5156775;28;20883;-53
2023/03/09 07:52:40;;;;;;;27.90;16.00;;;0.90;99.90;;;;;;5163893;28;20240;-51
2023/03/09 07:55:12;;;;;;;29.73;15.50;;;0.80;99.90;;;;;;5159055;28;20439;-51
2023/03/09 07:57:44;;;;;;;26.47;16.33;;;0.90;99.90;;;;;;5159754;28;20462;-50
2023/03/09 08:00:20;;;;;;;23.37;15.40;;;1.00;99.90;;;;;;5163503;28;20442;-51
2023/03/09 08:02:51;;;;;;;27.13;14.83;;;1.00;99.90;;;;;;5162338;28;20530;-53
2023/03/09 08:05:22;;;;;;;21.23;14.00;;;1.10;99.90;;;;;;5161659;28;20448;-51
2023/03/09 08:07:52;;;;;;;17.10;13.90;;;1.20;99.90;;;;;;5158715;28;20463;-50
2023/03/09 08:10:23;;;;;;;21.70;13.83;;;1.20;99.90;;;;;;5160029;28;20448;-50
2023/03/09 08:12:54;;;;;;;22.53;15.10;;;1.10;99.90;;;;;;5164233;28;20196;-51
2023/03/09 08:15:25;;;;;;;25.40;13.83;;;1.10;99.90;;;;;;5155331;28;20225;-51
2023/03/09 08:17:56;;;;;;;27.07;16.00;;;1.10;99.90;;;;;;5161257;28;20560;-52
2023/03/09 08:20:26;;;;;;;19.20;14.93;;;1.00;99.90;;;;;;5158243;28;20440;-51
2023/03/09 08:22:57;;;;;;;23.60;14.67;;;1.00;99.90;;;;;;5153025;28;20276;-53
2023/03/09 08:25:28;;;;;;;22.60;14.80;;;1.00;99.90;;;;;;5158489;28;20216;-52
2023/03/09 08:27:59;;;;;;;25.60;16.77;;;0.90;99.90;;;;;;5152356;28;20220;-51
2023/03/09 08:30:30;;;;;;;24.40;15.80;;;1.10;99.90;;;;;;5156387;28;20432;-51
2023/03/09 08:33:01;;;;;;;26.70;16.33;;;1.20;99.90;;;;;;5158873;28;20186;-52
2023/03/09 08:35:32;;;;;;;26.90;16.33;;;1.20;99.90;;;;;;5168006;28;20847;-50
2023/03/09 08:38:03;;;;;;;24.97;17.17;;;1.10;99.90;;;;;;5156970;28;20280;-49
2023/03/09 08:40:33;;;;;;;26.50;16.43;;;0.90;99.90;;;;;;5164186;28;20858;-49
2023/03/09 08:43:05;;;;;;;26.90;17.87;;;0.90;99.90;;;;;;5165102;28;20192;-52
2023/03/09 08:45:38;;;;;;;30.37;19.57;;;0.80;99.90;;;;;;5160675;28;20213;-53
2023/03/09 08:48:08;;;;;;;44.73;22.93;;;0.80;99.90;;;;;;5172489;28;20451;-51
2023/03/09 08:50:40;;;;;;;46.27;25.10;;;0.60;99.90;;;;;;5169820;28;20776;-53
2023/03/09 08:53:11;;;;;;;48.13;25.57;;;0.50;99.90;;;;;;5171146;28;20570;-50
2023/03/09 08:55:42;;;;;;;60.10;30.93;;;0.40;99.90;;;;;;5143751;28;20441;-50
2023/03/09 08:58:12;;;;;;;58.63;30.87;;;0.40;99.90;;;;;;5166417;28;20258;-51
2023/03/09 09:00:43;;;;;;;66.30;33.67;;;0.30;99.90;;;;;;5164372;28;20173;-51
2023/03/09 09:03:14;;;;;;;80.73;37.77;;;0.30;99.90;;;;;;5164521;28;20553;-52
2023/03/09 09:05:45;;;;;;;82.47;38.97;;;0.30;99.90;;;;;;5162233;28;20208;-51
2023/03/09 09:08:15;;;;;;;81.63;36.63;;;0.30;99.90;;;;;;5170681;28;20455;-50
2023/03/09 09:10:46;;;;;;;87.27;39.33;;;0.30;99.90;;;;;;5167277;28;20646;-51
2023/03/09 09:13:17;;;;;;;85.27;40.40;;;0.30;99.90;;;;;;5167526;28;20669;-50
2023/03/09 09:15:52;;;;;;;74.50;38.97;;;0.40;99.90;;;;;;5165704;28;20189;-49
2023/03/09 09:18:23;;;;;;;85.83;41.33;;;0.30;99.90;;;;;;5177339;28;20231;-51
2023/03/09 09:20:54;;;;;;;76.20;38.10;;;0.30;99.90;;;;;;5170681;28;20455;-49
2023/03/09 09:23:24;;;;;;;88.27;40.63;;;0.30;99.90;;;;;;5166104;28;20192;-52
2023/03/09 09:25:55;;;;;;;87.13;40.60;;;0.20;99.90;;;;;;5164745;28;20217;-50
2023/03/09 09:28:26;;;;;;;93.07;45.07;;;0.10;99.90;;;;;;5165964;28;20260;-51
2023/03/09 09:30:58;;;;;;;106.03;45.50;;;0.20;99.90;;;;;;5156428;28;20455;-51
2023/03/09 09:33:31;;;;;;;97.43;44.30;;;0.30;99.90;;;;;;5160665;28;20555;-49
2023/03/09 09:36:09;;;;;;;106.60;45.70;;;0.30;99.90;;;;;;5162751;28;20525;-51
2023/03/09 09:38:40;;;;;;;98.20;42.40;;;0.30;99.90;;;;;;5178191;22;20928;-47
2023/03/09 09:41:23;;;;;;;108.60;44.57;;;0.30;99.90;;;;;;5160075;28;20437;-46
2023/03/09 09:43:58;;;;;;;97.13;42.90;;;0.30;99.90;;;;;;5166646;28;20440;-47
2023/03/09 09:46:31;;;;;;;97.03;43.80;;;0.30;99.90;;;;;;5162965;28;20491;-46
2023/03/09 09:49:03;;;;;;;120.47;47.77;;;0.30;99.90;;;;;;5169046;28;20837;-47
2023/03/09 09:52:01;;;;;;;104.80;43.00;;;0.30;99.90;;;;;;5122128;28;20473;-47
2023/03/09 09:54:53;;;;;;;102.43;43.30;;;0.30;99.90;;;;;;5153863;28;20456;-47
2023/03/09 09:57:28;;;;;;;102.57;43.97;;;0.30;99.90;;;;;;5163163;28;20436;-46
2023/03/09 10:00:26;;;;;;;97.50;45.23;;;0.40;99.90;;;;;;5146773;28;20985;-45
2023/03/09 10:03:20;;;;;;;99.40;45.43;;;0.30;99.90;;;;;;5141417;28;20440;-52
2023/03/09 10:06:00;;;;;;;107.20;44.23;;;0.40;99.90;;;;;;5131846;28;21814;-46
2023/03/09 10:08:58;;;;;;;97.80;41.43;;;0.40;99.90;;;;;;5142850;28;20980;-47
2023/03/09 10:11:46;;;;;;;117.70;45.17;;;0.50;99.90;;;;;;5140088;28;20940;-45
2023/03/09 10:14:30;;;;;;;96.50;41.67;;;0.40;99.90;;;;;;5146134;28;20448;-53
2023/03/09 10:17:26;;;;;;;101.20;43.33;;;0.30;99.90;;;;;;5144730;28;20500;-46
2023/03/09 10:20:13;;;;;;;116.43;48.37;;;0.30;99.90;;;;;;5141633;28;20465;-47
2023/03/09 10:22:46;;;;;;;111.30;47.00;;;0.30;99.90;;;;;;5144011;28;20765;-47
2023/03/09 10:25:21;;;;;;;87.43;43.87;;;0.20;99.90;;;;;;5144073;28;20449;-45
2023/03/09 10:28:08;;;;;;;104.50;48.07;;;0.10;99.90;;;;;;5139692;28;20808;-46
2023/03/09 10:30:53;;;;;;;138.90;50.10;;;0.10;99.90;;;;;;5147438;28;20467;-46
2023/03/09 10:33:58;;;;;;;92.43;46.03;;;0.20;99.90;;;;;;5137254;28;20855;-47
2023/03/09 10:36:33;;;;;;;104.97;48.40;;;0.20;99.90;;;;;;5151797;28;20480;-50
2023/03/09 10:39:16;;;;;;;122.73;47.33;;;0.30;99.90;;;;;;5139489;28;20569;-48
2023/03/09 10:41:46;;;;;;;122.07;47.37;;;0.20;99.90;;;;;;5137782;28;20452;-48
2023/03/09 10:44:19;;;;;;;108.57;47.77;;;0.30;99.90;;;;;;5149197;28;20459;-47
2023/03/09 10:47:01;;;;;;;104.07;46.37;;;0.30;99.90;;;;;;5136504;28;20654;-48
2023/03/09 10:49:31;;;;;;;133.37;52.10;;;0.20;99.90;;;;;;5147074;28;20489;-47
2023/03/09 10:52:05;;;;;;;122.37;49.70;;;0.20;99.90;;;;;;5139273;28;20536;-49
2023/03/09 10:54:39;;;;;;;112.77;49.53;;;0.30;99.90;;;;;;5136153;28;20547;-46
2023/03/09 10:57:23;;;;;;;113.47;49.07;;;0.20;99.90;;;;;;5152239;28;20484;-49
2023/03/09 11:00:06;;;;;;;122.13;50.80;;;0.20;99.90;;;;;;5155060;28;20460;-46
2023/03/09 11:02:36;;;;;;;127.00;49.60;;;0.30;99.90;;;;;;5138336;28;20881;-46
2023/03/09 11:05:22;;;;;;;106.83;46.37;;;0.30;99.90;;;;;;5143279;28;20437;-47
2023/03/09 11:07:55;;;;;;;111.00;48.20;;;0.20;99.90;;;;;;5141013;28;20356;-48
2023/03/09 11:10:34;;;;;;;133.63;51.20;;;0.30;99.90;;;;;;5144985;28;20530;-47
2023/03/09 11:13:04;;;;;;;124.63;50.50;;;0.20;99.90;;;;;;5143590;28;20453;-47
2023/03/09 11:15:40;;;;;;;125.00;52.67;;;0.30;99.90;;;;;;5132519;28;20450;-47
2023/03/09 11:18:29;;;;;;;136.83;53.33;;;0.30;99.90;;;;;;5141632;28;20244;-47
2023/03/09 11:20:59;;;;;;;127.80;54.10;;;0.30;99.90;;;;;;5144176;28;20878;-49
2023/03/09 11:23:37;;;;;;;127.80;51.10;;;0.30;99.90;;;;;;5157784;28;20437;-49
2023/03/09 11:26:31;;;;;;;123.07;51.00;;;0.30;99.90;;;;;;5156250;28;20205;-49
2023/03/09 11:29:28;;;;;;;116.03;47.33;;;0.30;99.90;;;;;;5143459;28;20456;-49
2023/03/09 11:31:59;;;;;;;113.13;47.23;;;0.30;99.90;;;;;;5144951;28;20451;-49
2023/03/09 11:34:35;;;;;;;115.67;49.50;;;0.40;99.90;;;;;;5145481;28;20438;-48
2023/03/09 11:37:14;;;;;;;116.57;47.47;;;0.40;99.90;;;;;;5160984;28;20196;-47
2023/03/09 11:40:12;;;;;;;116.33;45.63;;;0.40;99.90;;;;;;5152577;28;20464;-46
2023/03/09 11:43:03;;;;;;;94.47;45.57;;;0.40;99.90;;;;;;5143744;28;20459;-45
2023/03/09 11:45:35;;;;;;;106.97;47.50;;;0.50;99.90;;;;;;5145109;28;20952;-47
2023/03/09 11:48:28;;;;;;;92.87;41.30;;;0.50;99.90;;;;;;5138507;28;20516;-47
2023/03/09 11:51:21;;;;;;;105.13;43.73;;;0.60;99.90;;;;;;5142320;28;20453;-48
2023/03/09 11:54:14;;;;;;;80.83;38.70;;;0.50;99.90;;;;;;5145934;28;20441;-49
2023/03/09 11:56:47;;;;;;;78.37;35.60;;;0.60;99.90;;;;;;5148189;28;20484;-46
2023/03/09 11:59:34;;;;;;;60.80;33.60;;;0.60;99.90;;;;;;5149428;28;20456;-50
2023/03/09 12:02:29;;;;;;;69.93;34.27;;;0.70;99.90;;;;;;5148869;28;20844;-47
2023/03/09 12:05:01;;;;;;;57.33;31.13;;;0.80;99.90;;;;;;5140776;28;20438;-47
2023/03/09 12:07:38;;;;;;;50.80;27.03;;;0.80;99.90;;;;;;5145575;28;20534;-47
2023/03/09 12:10:18;;;;;;;47.73;27.40;;;0.90;99.90;;;;;;5139567;28;21016;-49
2023/03/09 12:13:03;;;;;;;50.17;26.23;;;0.90;99.90;;;;;;5140244;28;20510;-49
2023/03/09 12:15:41;;;;;;;44.23;25.73;;;0.90;99.90;;;;;;5143979;28;20498;-49
2023/03/09 12:18:26;;;;;;;47.47;27.40;;;0.80;99.90;;;;;;5141134;28;21190;-48
2023/03/09 12:20:59;;;;;;;55.07;29.47;;;0.90;99.90;;;;;;5140737;28;20937;-49
2023/03/09 12:23:36;;;;;;;55.00;28.40;;;1.00;99.90;;;;;;5159999;28;20444;-47
2023/03/09 12:26:06;;;;;;;58.07;28.60;;;1.10;99.90;;;;;;5157132;28;20620;-48
2023/03/09 12:28:39;;;;;;;55.67;30.23;;;1.10;99.90;;;;;;5145617;28;20544;-48
2023/03/09 12:31:30;;;;;;;43.20;27.87;;;1.10;99.90;;;;;;5142737;28;20265;-50
2023/03/09 12:34:23;;;;;;;46.27;28.13;;;1.00;99.90;;;;;;5146646;28;20464;-48
2023/03/09 12:37:32;;;;;;;45.20;26.63;;;1.00;99.90;;;;;;5145074;28;20937;-47
2023/03/09 12:40:15;;;;;;;45.53;27.47;;;1.00;99.90;;;;;;5150934;28;20479;-47
2023/03/09 12:42:51;;;;;;;56.97;30.30;;;1.10;99.90;;;;;;5144498;28;20444;-47
2023/03/09 12:45:29;;;;;;;51.73;30.40;;;1.10;99.90;;;;;;5157867;28;20448;-47
2023/03/09 12:48:12;;;;;;;48.23;27.17;;;1.20;99.90;;;;;;5145276;28;20437;-48
2023/03/09 12:50:42;;;;;;;49.50;26.43;;;1.20;99.90;;;;;;5150883;28;20433;-45
2023/03/09 12:53:20;;;;;;;51.33;29.37;;;1.10;99.90;;;;;;5162656;28;20954;-46
2023/03/09 12:55:55;;;;;;;47.67;28.10;;;1.00;99.90;;;;;;5153320;28;20546;-46
2023/03/09 12:58:26;;;;;;;51.80;29.00;;;1.10;99.90;;;;;;5152023;28;20508;-47
2023/03/09 13:01:17;;;;;;;54.73;29.53;;;1.10;99.90;;;;;;5147079;28;20871;-48
2023/03/09 13:03:48;;;;;;;52.50;30.00;;;1.10;99.90;;;;;;5162282;28;20186;-47
2023/03/09 13:06:24;;;;;;;46.67;27.20;;;1.20;99.90;;;;;;5151588;28;20508;-46
2023/03/09 13:09:15;;;;;;;52.40;29.30;;;1.00;99.90;;;;;;5146703;28;20470;-47
2023/03/09 13:12:15;;;;;;;48.70;29.17;;;1.20;99.90;;;;;;5155001;28;20464;-47